sensor_id;sensor_type;location;lat;lon;timestamp;pressure;altitude;pressure_sealevel;temperature
19061;BMP280;9663;48.996;8.334;2024-03-07T00:00:13;100857.69;;;15.37
19061;BMP280;9663;48.996;8.334;2024-03-07T00:02:48;100855.13;;;15.37
19061;BMP280;9663;48.996;8.334;2024-03-07T00:05:19;100861.97;;;15.37
19061;BMP280;9663;48.996;8.334;2024-03-07T00:07:45;100867.09;;;15.35
19061;BMP280;9663;48.996;8.334;2024-03-07T00:10:12;100865.41;;;15.34
19061;BMP280;9663;48.996;8.334;2024-03-07T00:12:39;100858.56;;;15.35
19061;BMP280;9663;48.996;8.334;2024-03-07T00:15:11;100859.44;;;15.34
19061;BMP280;9663;48.996;8.334;2024-03-07T00:17:39;100862.03;;;15.32
19061;BMP280;9663;48.996;8.334;2024-03-07T00:20:05;100862.88;;;15.31
19061;BMP280;9663;48.996;8.334;2024-03-07T00:22:35;100858.66;;;15.30
19061;BMP280;9663;48.996;8.334;2024-03-07T00:25:02;100859.50;;;15.31
19061;BMP280;9663;48.996;8.334;2024-03-07T00:27:31;100865.44;;;15.30
19061;BMP280;9663;48.996;8.334;2024-03-07T00:29:58;100866.31;;;15.30
19061;BMP280;9663;48.996;8.334;2024-03-07T00:32:24;100859.53;;;15.26
19061;BMP280;9663;48.996;8.334;2024-03-07T00:34:50;100857.88;;;15.24
19061;BMP280;9663;48.996;8.334;2024-03-07T00:37:16;100864.72;;;15.23
19061;BMP280;9663;48.996;8.334;2024-03-07T00:39:42;100862.16;;;15.23
19061;BMP280;9663;48.996;8.334;2024-03-07T00:42:08;100863.03;;;15.22
19061;BMP280;9663;48.996;8.334;2024-03-07T00:44:34;100857.97;;;15.18
19061;BMP280;9663;48.996;8.334;2024-03-07T00:47:01;100867.34;;;15.14
19061;BMP280;9663;48.996;8.334;2024-03-07T00:49:30;100862.28;;;15.11
19061;BMP280;9663;48.996;8.334;2024-03-07T00:51:58;100855.47;;;15.12
19061;BMP280;9663;48.996;8.334;2024-03-07T00:54:23;100863.16;;;15.10
19061;BMP280;9663;48.996;8.334;2024-03-07T00:56:49;100853.78;;;15.09
19061;BMP280;9663;48.996;8.334;2024-03-07T00:59:16;100851.25;;;15.08
19061;BMP280;9663;48.996;8.334;2024-03-07T01:01:42;100854.69;;;15.07
19061;BMP280;9663;48.996;8.334;2024-03-07T01:04:08;100860.66;;;15.06
19061;BMP280;9663;48.996;8.334;2024-03-07T01:06:35;100851.34;;;15.02
19061;BMP280;9663;48.996;8.334;2024-03-07T01:09:06;100859.88;;;14.99
19061;BMP280;9663;48.996;8.334;2024-03-07T01:11:42;100846.28;;;14.97
19061;BMP280;9663;48.996;8.334;2024-03-07T01:14:08;100855.72;;;14.93
19061;BMP280;9663;48.996;8.334;2024-03-07T01:16:34;100859.16;;;14.89
19061;BMP280;9663;48.996;8.334;2024-03-07T01:19:01;100854.94;;;14.88
19061;BMP280;9663;48.996;8.334;2024-03-07T01:21:26;100849.00;;;14.86
19061;BMP280;9663;48.996;8.334;2024-03-07T01:23:52;100852.44;;;14.83
19061;BMP280;9663;48.996;8.334;2024-03-07T01:26:18;100848.22;;;14.81
19061;BMP280;9663;48.996;8.334;2024-03-07T01:28:43;100845.69;;;14.79
19061;BMP280;9663;48.996;8.334;2024-03-07T01:31:09;100843.16;;;14.76
19061;BMP280;9663;48.996;8.334;2024-03-07T01:33:36;100842.34;;;14.74
19061;BMP280;9663;48.996;8.334;2024-03-07T01:36:01;100837.25;;;14.73
19061;BMP280;9663;48.996;8.334;2024-03-07T01:38:27;100835.56;;;14.69
19061;BMP280;9663;48.996;8.334;2024-03-07T01:40:53;100836.47;;;14.66
19061;BMP280;9663;48.996;8.334;2024-03-07T01:43:20;100827.13;;;14.64
19061;BMP280;9663;48.996;8.334;2024-03-07T01:45:47;100823.75;;;14.62
19061;BMP280;9663;48.996;8.334;2024-03-07T01:48:26;100827.22;;;14.58
19061;BMP280;9663;48.996;8.334;2024-03-07T01:50:52;100827.22;;;14.56
19061;BMP280;9663;48.996;8.334;2024-03-07T01:53:19;100828.09;;;14.54
19061;BMP280;9663;48.996;8.334;2024-03-07T01:55:44;100830.66;;;14.51
19061;BMP280;9663;48.996;8.334;2024-03-07T01:58:17;100819.66;;;14.48
19061;BMP280;9663;48.996;8.334;2024-03-07T02:00:43;100821.38;;;14.46
19061;BMP280;9663;48.996;8.334;2024-03-07T02:03:09;100810.34;;;14.45
19061;BMP280;9663;48.996;8.334;2024-03-07T02:05:35;100814.53;;;14.48
19061;BMP280;9663;48.996;8.334;2024-03-07T02:08:01;100815.41;;;14.48
19061;BMP280;9663;48.996;8.334;2024-03-07T02:10:27;100816.25;;;14.50
19061;BMP280;9663;48.996;8.334;2024-03-07T02:12:53;100813.69;;;14.50
19061;BMP280;9663;48.996;8.334;2024-03-07T02:15:19;100821.34;;;14.50
19061;BMP280;9663;48.996;8.334;2024-03-07T02:17:45;100814.50;;;14.52
19061;BMP280;9663;48.996;8.334;2024-03-07T02:20:11;100813.66;;;14.52
19061;BMP280;9663;48.996;8.334;2024-03-07T02:22:38;100817.09;;;14.49
19061;BMP280;9663;48.996;8.334;2024-03-07T02:25:08;100815.41;;;14.48
19061;BMP280;9663;48.996;8.334;2024-03-07T02:27:39;100810.34;;;14.45
19061;BMP280;9663;48.996;8.334;2024-03-07T02:30:05;100807.81;;;14.42
19061;BMP280;9663;48.996;8.334;2024-03-07T02:32:34;100809.53;;;14.42
19061;BMP280;9663;48.996;8.334;2024-03-07T02:35:02;100802.72;;;14.41
19061;BMP280;9663;48.996;8.334;2024-03-07T02:37:29;100806.16;;;14.40
19061;BMP280;9663;48.996;8.334;2024-03-07T02:39:54;100801.06;;;14.40
19061;BMP280;9663;48.996;8.334;2024-03-07T02:42:20;100809.53;;;14.40
19061;BMP280;9663;48.996;8.334;2024-03-07T02:44:46;100803.63;;;14.38
19061;BMP280;9663;48.996;8.334;2024-03-07T02:47:12;100799.38;;;14.36
19061;BMP280;9663;48.996;8.334;2024-03-07T02:49:38;100796.84;;;14.33
19061;BMP280;9663;48.996;8.334;2024-03-07T02:52:04;100802.03;;;14.28
19061;BMP280;9663;48.996;8.334;2024-03-07T02:54:33;100801.16;;;14.26
19061;BMP280;9663;48.996;8.334;2024-03-07T02:56:59;100807.16;;;14.24
19061;BMP280;9663;48.996;8.334;2024-03-07T02:59:25;100798.72;;;14.20
19061;BMP280;9663;48.996;8.334;2024-03-07T03:01:51;100802.97;;;14.18
19061;BMP280;9663;48.996;8.334;2024-03-07T03:04:17;100799.66;;;14.10
19061;BMP280;9663;48.996;8.334;2024-03-07T03:06:43;100791.22;;;14.06
19061;BMP280;9663;48.996;8.334;2024-03-07T03:09:09;100793.78;;;14.00
19061;BMP280;9663;48.996;8.334;2024-03-07T03:11:39;100787.06;;;13.93
19061;BMP280;9663;48.996;8.334;2024-03-07T03:14:04;100790.53;;;13.83
19061;BMP280;9663;48.996;8.334;2024-03-07T03:16:30;100787.22;;;13.75
19061;BMP280;9663;48.996;8.334;2024-03-07T03:18:57;100797.50;;;13.65
19061;BMP280;9663;48.996;8.334;2024-03-07T03:21:23;100800.09;;;13.57
19061;BMP280;9663;48.996;8.334;2024-03-07T03:23:49;100794.22;;;13.48
19061;BMP280;9663;48.996;8.334;2024-03-07T03:26:15;100794.31;;;13.39
19061;BMP280;9663;48.996;8.334;2024-03-07T03:28:41;100785.84;;;13.32
19061;BMP280;9663;48.996;8.334;2024-03-07T03:31:08;100790.16;;;13.24
19061;BMP280;9663;48.996;8.334;2024-03-07T03:33:34;100787.66;;;13.19
19061;BMP280;9663;48.996;8.334;2024-03-07T03:36:01;100791.09;;;13.10
19061;BMP280;9663;48.996;8.334;2024-03-07T03:38:26;100786.06;;;13.03
19061;BMP280;9663;48.996;8.334;2024-03-07T03:40:52;100783.53;;;12.97
19061;BMP280;9663;48.996;8.334;2024-03-07T03:43:17;100787.81;;;12.89
19061;BMP280;9663;48.996;8.334;2024-03-07T03:45:44;100780.22;;;12.83
19061;BMP280;9663;48.996;8.334;2024-03-07T03:48:10;100781.09;;;12.76
19061;BMP280;9663;48.996;8.334;2024-03-07T03:50:36;100778.56;;;12.70
19061;BMP280;9663;48.996;8.334;2024-03-07T03:53:02;100782.00;;;12.65
19061;BMP280;9663;48.996;8.334;2024-03-07T03:55:29;100778.63;;;12.61
19061;BMP280;9663;48.996;8.334;2024-03-07T03:57:55;100786.25;;;12.55
19061;BMP280;9663;48.996;8.334;2024-03-07T04:00:20;100787.16;;;12.51
19061;BMP280;9663;48.996;8.334;2024-03-07T04:02:48;100784.59;;;12.45
19061;BMP280;9663;48.996;8.334;2024-03-07T04:05:16;100792.25;;;12.41
19061;BMP280;9663;48.996;8.334;2024-03-07T04:07:42;100788.03;;;12.36
19061;BMP280;9663;48.996;8.334;2024-03-07T04:10:10;100784.66;;;12.34
19061;BMP280;9663;48.996;8.334;2024-03-07T04:12:38;100790.59;;;12.28
19061;BMP280;9663;48.996;8.334;2024-03-07T04:15:08;100785.53;;;12.24
19061;BMP280;9663;48.996;8.334;2024-03-07T04:17:36;100785.53;;;12.18
19061;BMP280;9663;48.996;8.334;2024-03-07T04:20:06;100794.03;;;12.14
19061;BMP280;9663;48.996;8.334;2024-03-07T04:22:33;100789.78;;;12.10
19061;BMP280;9663;48.996;8.334;2024-03-07T04:25:01;100788.94;;;12.06
19061;BMP280;9663;48.996;8.334;2024-03-07T04:27:27;100791.50;;;12.03
19061;BMP280;9663;48.996;8.334;2024-03-07T04:29:53;100784.72;;;12.01
19061;BMP280;9663;48.996;8.334;2024-03-07T04:32:19;100783.91;;;11.96
19061;BMP280;9663;48.996;8.334;2024-03-07T04:34:44;100785.59;;;11.94
19061;BMP280;9663;48.996;8.334;2024-03-07T04:37:10;100784.72;;;11.91
19061;BMP280;9663;48.996;8.334;2024-03-07T04:39:39;100777.97;;;11.87
19061;BMP280;9663;48.996;8.334;2024-03-07T04:42:07;100789.84;;;11.85
19061;BMP280;9663;48.996;8.334;2024-03-07T04:44:36;100776.28;;;11.81
19061;BMP280;9663;48.996;8.334;2024-03-07T04:47:03;100775.47;;;11.76
19061;BMP280;9663;48.996;8.334;2024-03-07T04:49:31;100782.25;;;11.73
19061;BMP280;9663;48.996;8.334;2024-03-07T04:51:59;100781.38;;;11.69
19061;BMP280;9663;48.996;8.334;2024-03-07T04:54:28;100781.41;;;11.66
19061;BMP280;9663;48.996;8.334;2024-03-07T04:56:54;100784.75;;;11.62
19061;BMP280;9663;48.996;8.334;2024-03-07T04:59:21;100787.31;;;11.59
19061;BMP280;9663;48.996;8.334;2024-03-07T05:01:48;100778.00;;;11.55
19061;BMP280;9663;48.996;8.334;2024-03-07T05:04:16;100787.31;;;11.52
19061;BMP280;9663;48.996;8.334;2024-03-07T05:06:43;100785.59;;;11.51
19061;BMP280;9663;48.996;8.334;2024-03-07T05:09:10;100783.09;;;11.47
19061;BMP280;9663;48.996;8.334;2024-03-07T05:11:47;100788.97;;;11.44
19061;BMP280;9663;48.996;8.334;2024-03-07T05:14:13;100779.66;;;11.42
19061;BMP280;9663;48.996;8.334;2024-03-07T05:16:38;100783.88;;;11.38
19061;BMP280;9663;48.996;8.334;2024-03-07T05:19:04;100784.72;;;11.34
19061;BMP280;9663;48.996;8.334;2024-03-07T05:21:30;100782.19;;;11.31
19061;BMP280;9663;48.996;8.334;2024-03-07T05:24:02;100790.66;;;11.29
19061;BMP280;9663;48.996;8.334;2024-03-07T05:26:29;100789.81;;;11.25
19061;BMP280;9663;48.996;8.334;2024-03-07T05:29:08;100782.19;;;11.22
19061;BMP280;9663;48.996;8.334;2024-03-07T05:31:36;100781.34;;;11.19
19061;BMP280;9663;48.996;8.334;2024-03-07T05:34:04;100789.78;;;11.18
19061;BMP280;9663;48.996;8.334;2024-03-07T05:36:36;100777.94;;;11.15
19061;BMP280;9663;48.996;8.334;2024-03-07T05:39:10;100777.94;;;11.12
19061;BMP280;9663;48.996;8.334;2024-03-07T05:41:40;100783.84;;;11.10
19061;BMP280;9663;48.996;8.334;2024-03-07T05:44:07;100780.47;;;11.08
19061;BMP280;9663;48.996;8.334;2024-03-07T05:46:37;100776.25;;;11.06
19061;BMP280;9663;48.996;8.334;2024-03-07T05:49:07;100788.94;;;11.04
19061;BMP280;9663;48.996;8.334;2024-03-07T05:51:33;100778.75;;;11.01
19061;BMP280;9663;48.996;8.334;2024-03-07T05:53:59;100777.91;;;10.99
19061;BMP280;9663;48.996;8.334;2024-03-07T05:56:25;100780.44;;;10.96
19061;BMP280;9663;48.996;8.334;2024-03-07T05:58:50;100785.50;;;10.93
19061;BMP280;9663;48.996;8.334;2024-03-07T06:01:17;100783.78;;;10.92
19061;BMP280;9663;48.996;8.334;2024-03-07T06:03:44;100773.66;;;10.89
19061;BMP280;9663;48.996;8.334;2024-03-07T06:06:11;100777.03;;;10.88
19061;BMP280;9663;48.996;8.334;2024-03-07T06:08:38;100782.09;;;10.87
19061;BMP280;9663;48.996;8.334;2024-03-07T06:11:08;100789.72;;;10.85
19061;BMP280;9663;48.996;8.334;2024-03-07T06:13:34;100784.63;;;10.85
19061;BMP280;9663;48.996;8.334;2024-03-07T06:15:59;100788.88;;;10.85
19061;BMP280;9663;48.996;8.334;2024-03-07T06:18:29;100786.31;;;10.83
19061;BMP280;9663;48.996;8.334;2024-03-07T06:20:56;100784.63;;;10.82
19061;BMP280;9663;48.996;8.334;2024-03-07T06:23:22;100782.09;;;10.84
19061;BMP280;9663;48.996;8.334;2024-03-07T06:25:48;100786.31;;;10.83
19061;BMP280;9663;48.996;8.334;2024-03-07T06:28:17;100792.25;;;10.84
19061;BMP280;9663;48.996;8.334;2024-03-07T06:30:46;100784.63;;;10.85
19061;BMP280;9663;48.996;8.334;2024-03-07T06:33:13;100782.09;;;10.87
19061;BMP280;9663;48.996;8.334;2024-03-07T06:35:40;100784.66;;;10.91
19061;BMP280;9663;48.996;8.334;2024-03-07T06:38:08;100783.81;;;10.95
19061;BMP280;9663;48.996;8.334;2024-03-07T06:40:37;100783.00;;;10.99
19061;BMP280;9663;48.996;8.334;2024-03-07T06:43:04;100789.75;;;11.03
19061;BMP280;9663;48.996;8.334;2024-03-07T06:45:30;100792.31;;;11.06
19061;BMP280;9663;48.996;8.334;2024-03-07T06:47:56;100789.78;;;11.09
19061;BMP280;9663;48.996;8.334;2024-03-07T06:50:22;100792.31;;;11.12
19061;BMP280;9663;48.996;8.334;2024-03-07T06:52:49;100790.63;;;11.14
19061;BMP280;9663;48.996;8.334;2024-03-07T06:55:18;100802.47;;;11.16
19061;BMP280;9663;48.996;8.334;2024-03-07T06:57:44;100794.03;;;11.19
19061;BMP280;9663;48.996;8.334;2024-03-07T07:00:12;100794.88;;;11.21
19061;BMP280;9663;48.996;8.334;2024-03-07T07:02:39;100800.81;;;11.24
19061;BMP280;9663;48.996;8.334;2024-03-07T07:05:07;100803.34;;;11.27
19061;BMP280;9663;48.996;8.334;2024-03-07T07:07:40;100794.03;;;11.34
19061;BMP280;9663;48.996;8.334;2024-03-07T07:10:09;100807.59;;;11.40
19061;BMP280;9663;48.996;8.334;2024-03-07T07:12:48;100799.13;;;11.44
19061;BMP280;9663;48.996;8.334;2024-03-07T07:15:19;100788.16;;;11.48
19061;BMP280;9663;48.996;8.334;2024-03-07T07:17:47;100800.03;;;11.53
19061;BMP280;9663;48.996;8.334;2024-03-07T07:20:16;100796.63;;;11.59
19061;BMP280;9663;48.996;8.334;2024-03-07T07:22:45;100796.63;;;11.63
19061;BMP280;9663;48.996;8.334;2024-03-07T07:25:12;100792.41;;;11.68
19061;BMP280;9663;48.996;8.334;2024-03-07T07:27:52;100799.16;;;11.77
19061;BMP280;9663;48.996;8.334;2024-03-07T07:30:21;100789.00;;;11.83
19061;BMP280;9663;48.996;8.334;2024-03-07T07:32:51;100792.38;;;11.88
19061;BMP280;9663;48.996;8.334;2024-03-07T07:35:17;100788.97;;;11.96
19061;BMP280;9663;48.996;8.334;2024-03-07T07:37:45;100788.94;;;12.03
19061;BMP280;9663;48.996;8.334;2024-03-07T07:40:14;100794.03;;;12.11
19061;BMP280;9663;48.996;8.334;2024-03-07T07:42:47;100793.16;;;12.16
19061;BMP280;9663;48.996;8.334;2024-03-07T07:45:15;100781.28;;;12.21
19061;BMP280;9663;48.996;8.334;2024-03-07T07:47:47;100774.50;;;12.26
19061;BMP280;9663;48.996;8.334;2024-03-07T07:50:24;100777.88;;;12.33
19061;BMP280;9663;48.996;8.334;2024-03-07T07:52:57;100771.88;;;12.41
19061;BMP280;9663;48.996;8.334;2024-03-07T07:55:26;100767.63;;;12.46
19061;BMP280;9663;48.996;8.334;2024-03-07T07:58:01;100770.16;;;12.52
19061;BMP280;9663;48.996;8.334;2024-03-07T08:00:32;100765.03;;;12.58
19061;BMP280;9663;48.996;8.334;2024-03-07T08:03:05;100766.72;;;12.68
19061;BMP280;9663;48.996;8.334;2024-03-07T08:05:37;100759.84;;;12.78
19061;BMP280;9663;48.996;8.334;2024-03-07T08:08:05;100774.25;;;12.87
19061;BMP280;9663;48.996;8.334;2024-03-07T08:10:33;100761.50;;;12.94
19061;BMP280;9663;48.996;8.334;2024-03-07T08:13:02;100755.50;;;13.03
19061;BMP280;9663;48.996;8.334;2024-03-07T08:15:30;100763.06;;;13.12
19061;BMP280;9663;48.996;8.334;2024-03-07T08:17:57;100751.13;;;13.20
19061;BMP280;9663;48.996;8.334;2024-03-07T08:20:24;100754.47;;;13.27
19061;BMP280;9663;48.996;8.334;2024-03-07T08:22:52;100746.81;;;13.30
19061;BMP280;9663;48.996;8.334;2024-03-07T08:25:21;100740.81;;;13.34
19061;BMP280;9663;48.996;8.334;2024-03-07T08:27:51;100737.34;;;13.43
19061;BMP280;9663;48.996;8.334;2024-03-07T08:30:18;100726.28;;;13.48
19061;BMP280;9663;48.996;8.334;2024-03-07T08:32:57;100727.94;;;13.54
19061;BMP280;9663;48.996;8.334;2024-03-07T08:35:23;100729.53;;;13.65
19061;BMP280;9663;48.996;8.334;2024-03-07T08:37:51;100719.22;;;13.72
19061;BMP280;9663;48.996;8.334;2024-03-07T08:40:25;100720.00;;;13.80
19061;BMP280;9663;48.996;8.334;2024-03-07T08:42:53;100718.22;;;13.88
19061;BMP280;9663;48.996;8.334;2024-03-07T08:45:23;100712.19;;;13.95
19061;BMP280;9663;48.996;8.334;2024-03-07T08:47:54;100707.88;;;14.06
19061;BMP280;9663;48.996;8.334;2024-03-07T08:50:20;100702.63;;;14.16
19061;BMP280;9663;48.996;8.334;2024-03-07T08:52:47;100701.63;;;14.31
19061;BMP280;9663;48.996;8.334;2024-03-07T08:55:15;100697.19;;;14.45
19061;BMP280;9663;48.996;8.334;2024-03-07T08:57:43;100698.81;;;14.52
19061;BMP280;9663;48.996;8.334;2024-03-07T09:00:13;100697.84;;;14.60
19061;BMP280;9663;48.996;8.334;2024-03-07T09:02:59;100692.59;;;14.67
19061;BMP280;9663;48.996;8.334;2024-03-07T09:05:29;100700.16;;;14.76
19061;BMP280;9663;48.996;8.334;2024-03-07T09:07:55;100694.09;;;14.82
19061;BMP280;9663;48.996;8.334;2024-03-07T09:10:21;100689.78;;;14.87
19061;BMP280;9663;48.996;8.334;2024-03-07T09:12:51;100696.44;;;14.96
19061;BMP280;9663;48.996;8.334;2024-03-07T09:15:17;100699.72;;;15.04
19061;BMP280;9663;48.996;8.334;2024-03-07T09:17:44;100684.34;;;15.09
19061;BMP280;9663;48.996;8.334;2024-03-07T09:20:11;100680.00;;;15.15
19061;BMP280;9663;48.996;8.334;2024-03-07T09:22:44;100687.53;;;15.23
19061;BMP280;9663;48.996;8.334;2024-03-07T09:25:10;100696.88;;;15.25
19061;BMP280;9663;48.996;8.334;2024-03-07T09:27:38;100685.72;;;15.29
19061;BMP280;9663;48.996;8.334;2024-03-07T09:30:06;100677.09;;;15.35
19061;BMP280;9663;48.996;8.334;2024-03-07T09:32:40;100686.41;;;15.40
19061;BMP280;9663;48.996;8.334;2024-03-07T09:35:09;100682.91;;;15.44
19061;BMP280;9663;48.996;8.334;2024-03-07T09:37:42;100682.81;;;15.50
19061;BMP280;9663;48.996;8.334;2024-03-07T09:40:09;100677.53;;;15.57
19061;BMP280;9663;48.996;8.334;2024-03-07T09:42:49;100686.00;;;15.61
19061;BMP280;9663;48.996;8.334;2024-03-07T09:45:19;100678.22;;;15.68
19061;BMP280;9663;48.996;8.334;2024-03-07T09:47:48;100667.84;;;15.76
19061;BMP280;9663;48.996;8.334;2024-03-07T09:50:20;100673.63;;;15.85
19061;BMP280;9663;48.996;8.334;2024-03-07T09:52:50;100670.19;;;15.87
19061;BMP280;9663;48.996;8.334;2024-03-07T09:55:18;100666.69;;;15.90
19061;BMP280;9663;48.996;8.334;2024-03-07T09:57:49;100665.78;;;15.94
19061;BMP280;9663;48.996;8.334;2024-03-07T10:00:20;100678.41;;;16.01
19061;BMP280;9663;48.996;8.334;2024-03-07T10:02:58;100666.28;;;16.11
19061;BMP280;9663;48.996;8.334;2024-03-07T10:05:27;100666.97;;;16.22
19061;BMP280;9663;48.996;8.334;2024-03-07T10:07:53;100671.06;;;16.28
19061;BMP280;9663;48.996;8.334;2024-03-07T10:10:20;100672.66;;;16.34
19061;BMP280;9663;48.996;8.334;2024-03-07T10:12:48;100669.91;;;16.43
19061;BMP280;9663;48.996;8.334;2024-03-07T10:15:15;100667.19;;;16.49
19061;BMP280;9663;48.996;8.334;2024-03-07T10:17:44;100667.94;;;16.54
19061;BMP280;9663;48.996;8.334;2024-03-07T10:20:12;100665.22;;;16.61
19061;BMP280;9663;48.996;8.334;2024-03-07T10:22:40;100664.97;;;16.71
19061;BMP280;9663;48.996;8.334;2024-03-07T10:25:07;100659.50;;;16.86
19061;BMP280;9663;48.996;8.334;2024-03-07T10:27:37;100660.78;;;17.05
19061;BMP280;9663;48.996;8.334;2024-03-07T10:30:04;100660.47;;;17.17
19061;BMP280;9663;48.996;8.334;2024-03-07T10:32:33;100662.78;;;17.27
19061;BMP280;9663;48.996;8.334;2024-03-07T10:34:59;100657.50;;;17.35
19061;BMP280;9663;48.996;8.334;2024-03-07T10:37:24;100663.31;;;17.41
19061;BMP280;9663;48.996;8.334;2024-03-07T10:39:51;100655.44;;;17.47
19061;BMP280;9663;48.996;8.334;2024-03-07T10:42:26;100655.13;;;17.59
19061;BMP280;9663;48.996;8.334;2024-03-07T10:45:03;100653.91;;;17.72
19061;BMP280;9663;48.996;8.334;2024-03-07T10:47:33;100644.16;;;17.84
19061;BMP280;9663;48.996;8.334;2024-03-07T10:50:38;100649.75;;;17.98
19061;BMP280;9663;48.996;8.334;2024-03-07T10:59:25;100647.03;;;18.33
19061;BMP280;9663;48.996;8.334;2024-03-07T11:04:59;100642.28;;;18.21
19061;BMP280;9663;48.996;8.334;2024-03-07T11:07:26;100638.06;;;18.20
19061;BMP280;9663;48.996;8.334;2024-03-07T11:09:54;100640.69;;;18.17
19061;BMP280;9663;48.996;8.334;2024-03-07T11:12:25;100633.06;;;18.14
19061;BMP280;9663;48.996;8.334;2024-03-07T11:14:55;100638.00;;;18.48
19061;BMP280;9663;48.996;8.334;2024-03-07T11:17:22;100636.59;;;18.39
19061;BMP280;9663;48.996;8.334;2024-03-07T11:19:48;100631.09;;;18.50
19061;BMP280;9663;48.996;8.334;2024-03-07T11:22:31;100618.81;;;18.60
19061;BMP280;9663;48.996;8.334;2024-03-07T11:25:05;100620.03;;;18.76
19061;BMP280;9663;48.996;8.334;2024-03-07T11:27:39;100618.44;;;18.97
19061;BMP280;9663;48.996;8.334;2024-03-07T11:30:09;100601.31;;;19.24
19061;BMP280;9663;48.996;8.334;2024-03-07T11:32:37;100608.03;;;20.21
19061;BMP280;9663;48.996;8.334;2024-03-07T11:35:33;100599.47;;;20.63
19061;BMP280;9663;48.996;8.334;2024-03-07T11:38:06;100577.69;;;21.90
19061;BMP280;9663;48.996;8.334;2024-03-07T11:42:58;100567.94;;;22.69
19061;BMP280;9663;48.996;8.334;2024-03-07T11:45:30;100575.72;;;22.50
19061;BMP280;9663;48.996;8.334;2024-03-07T11:48:10;100565.28;;;22.35
19061;BMP280;9663;48.996;8.334;2024-03-07T11:50:40;100558.25;;;22.20
19061;BMP280;9663;48.996;8.334;2024-03-07T11:53:08;100563.81;;;22.11
19061;BMP280;9663;48.996;8.334;2024-03-07T11:55:35;100561.56;;;22.04
19061;BMP280;9663;48.996;8.334;2024-03-07T11:58:18;100557.78;;;21.74
19061;BMP280;9663;48.996;8.334;2024-03-07T12:00:48;100559.41;;;21.57
19061;BMP280;9663;48.996;8.334;2024-03-07T12:03:15;100553.31;;;21.59
19061;BMP280;9663;48.996;8.334;2024-03-07T12:05:49;100555.72;;;21.44
19061;BMP280;9663;48.996;8.334;2024-03-07T12:08:19;100547.59;;;21.13
19061;BMP280;9663;48.996;8.334;2024-03-07T12:10:48;100548.75;;;20.87
19061;BMP280;9663;48.996;8.334;2024-03-07T12:13:17;100544.53;;;20.63
19061;BMP280;9663;48.996;8.334;2024-03-07T12:15:45;100544.38;;;20.46
19061;BMP280;9663;48.996;8.334;2024-03-07T12:18:12;100545.16;;;20.27
19061;BMP280;9663;48.996;8.334;2024-03-07T12:20:41;100550.88;;;20.12
19061;BMP280;9663;48.996;8.334;2024-03-07T12:23:08;100541.13;;;19.99
19061;BMP280;9663;48.996;8.334;2024-03-07T12:25:35;100550.19;;;19.86
19061;BMP280;9663;48.996;8.334;2024-03-07T12:28:11;100539.28;;;19.78
19061;BMP280;9663;48.996;8.334;2024-03-07T12:30:51;100546.50;;;19.68
19061;BMP280;9663;48.996;8.334;2024-03-07T12:33:19;100537.34;;;19.62
19061;BMP280;9663;48.996;8.334;2024-03-07T12:35:50;100539.34;;;19.54
19061;BMP280;9663;48.996;8.334;2024-03-07T12:38:21;100540.75;;;19.39
19061;BMP280;9663;48.996;8.334;2024-03-07T12:41:03;100537.03;;;19.24
19061;BMP280;9663;48.996;8.334;2024-03-07T12:43:33;100542.31;;;19.19
19061;BMP280;9663;48.996;8.334;2024-03-07T12:45:59;100542.50;;;19.15
19061;BMP280;9663;48.996;8.334;2024-03-07T12:48:25;100532.31;;;19.12
19061;BMP280;9663;48.996;8.334;2024-03-07T12:50:52;100535.66;;;19.14
19061;BMP280;9663;48.996;8.334;2024-03-07T12:53:24;100525.31;;;19.15
19061;BMP280;9663;48.996;8.334;2024-03-07T12:55:54;100528.72;;;19.16
19061;BMP280;9663;48.996;8.334;2024-03-07T12:58:20;100525.19;;;19.20
19061;BMP280;9663;48.996;8.334;2024-03-07T13:00:52;100521.59;;;19.24
19061;BMP280;9663;48.996;8.334;2024-03-07T13:03:18;100519.84;;;19.24
19061;BMP280;9663;48.996;8.334;2024-03-07T13:05:44;100523.09;;;19.29
19061;BMP280;9663;48.996;8.334;2024-03-07T13:08:10;100521.22;;;19.34
19061;BMP280;9663;48.996;8.334;2024-03-07T13:10:41;100516.94;;;19.34
19061;BMP280;9663;48.996;8.334;2024-03-07T13:13:08;100518.63;;;19.34
19061;BMP280;9663;48.996;8.334;2024-03-07T13:15:39;100519.16;;;19.43
19061;BMP280;9663;48.996;8.334;2024-03-07T13:18:06;100510.94;;;20.02
19061;BMP280;9663;48.996;8.334;2024-03-07T13:20:35;100502.69;;;20.78
19061;BMP280;9663;48.996;8.334;2024-03-07T13:23:02;100508.75;;;21.36
19061;BMP280;9663;48.996;8.334;2024-03-07T13:25:29;100501.25;;;22.05
19061;BMP280;9663;48.996;8.334;2024-03-07T13:28:12;100513.75;;;21.59
19061;BMP280;9663;48.996;8.334;2024-03-07T13:30:43;100511.84;;;21.44
19061;BMP280;9663;48.996;8.334;2024-03-07T13:33:10;100507.81;;;21.57
19061;BMP280;9663;48.996;8.334;2024-03-07T13:35:38;100495.69;;;21.77
19061;BMP280;9663;48.996;8.334;2024-03-07T13:38:04;100494.41;;;22.04
19061;BMP280;9663;48.996;8.334;2024-03-07T13:40:30;100503.78;;;22.06
19061;BMP280;9663;48.996;8.334;2024-03-07T13:43:00;100503.94;;;21.85
19061;BMP280;9663;48.996;8.334;2024-03-07T13:45:31;100503.56;;;21.56
19061;BMP280;9663;48.996;8.334;2024-03-07T13:47:58;100497.06;;;21.47
19061;BMP280;9663;48.996;8.334;2024-03-07T13:50:28;100501.03;;;20.97
19061;BMP280;9663;48.996;8.334;2024-03-07T13:52:55;100497.25;;;20.64
19061;BMP280;9663;48.996;8.334;2024-03-07T14:02:30;100495.91;;;19.69
19061;BMP280;9663;48.996;8.334;2024-03-07T14:25:03;100474.03;;;19.58
19061;BMP280;9663;48.996;8.334;2024-03-07T14:27:36;100473.53;;;19.71
19061;BMP280;9663;48.996;8.334;2024-03-07T14:30:43;100466.50;;;19.74
19061;BMP280;9663;48.996;8.334;2024-03-07T14:33:11;100471.28;;;20.06
19061;BMP280;9663;48.996;8.334;2024-03-07T14:36:02;100474.41;;;19.47
19061;BMP280;9663;48.996;8.334;2024-03-07T14:38:47;100471.34;;;19.38
19061;BMP280;9663;48.996;8.334;2024-03-07T14:41:18;100470.50;;;19.37
19061;BMP280;9663;48.996;8.334;2024-03-07T14:43:45;100463.84;;;19.32
19061;BMP280;9663;48.996;8.334;2024-03-07T14:46:12;100463.06;;;19.30
19061;BMP280;9663;48.996;8.334;2024-03-07T14:48:40;100464.88;;;19.28
19061;BMP280;9663;48.996;8.334;2024-03-07T14:51:09;100456.19;;;19.30
19061;BMP280;9663;48.996;8.334;2024-03-07T14:53:35;100457.78;;;19.34
19061;BMP280;9663;48.996;8.334;2024-03-07T14:56:01;100441.28;;;19.40